Evelyn Maersk — OXHV2 — position and weather

sailwx.info

Track history (hours):
 
Tides and Currents Weather Stations Pressure Air Temp Water Temp Dewpoint Dewpoint Depression Visibility Wind Speed Wind Dir Waves Ship Positions

Evelyn Maersk

Last reported at 2016-May-27 12:00 UTC. Time now 2016-May-27 22:02 UTC.
Position N 34°54' E 020°00'.

Length 398 m; draft 15.6 m.

Type: Ship (hazmat cat A). MMSI: 220496000.

Wind from 320 at 13 knots

Waves 0.5 meters (2 feet)

Barometer 1016.1 mb
Air temperature 22.2 ° C
Visibility: greater than 10.8 NM
Dewpoint 19.3 ° C
Water temperature 20.9 ° C

Date/timePositionNaut miles runAvg speedWind from/ knotsBaromVisibWave heightAir tempDewpointWater temp
2016-May-27 12:00N 34°54' E 020°00'10719.6 320 / 131016.110.8 0.522.219.320.9
2016-May-27 06:32N 35°28' E 017°56'2020.2
2016-May-27 05:33N 35°34' E 017°33'2020.4
2016-May-27 04:33N 35°40' E 017°08'2020.6
2016-May-27 03:33N 35°46' E 016°45'2120.6
2016-May-27 02:33N 35°53' E 016°20'2120.5
2016-May-27 01:33N 35°59' E 015°56'2120.9
2016-May-27 00:33N 36°05' E 015°31'2121.0
2016-May-26 23:33N 36°11' E 015°07'2120.9
2016-May-26 22:33N 36°17' E 014°42'2120.6
2016-May-26 21:33N 36°23' E 014°18'2020.4
2016-May-26 20:33N 36°29' E 013°53'2120.6
2016-May-26 19:33N 36°36' E 013°29'2020.5
2016-May-26 18:33N 36°42' E 013°05'2120.6
2016-May-26 17:33N 36°51' E 012°41'2120.6
2016-May-26 16:33N 36°58' E 012°17'2120.4
2016-May-26 15:32N 37°06' E 011°53'2020.6
2016-May-26 14:33N 37°13' E 011°30'2120.6
2016-May-26 13:33N 37°22' E 011°06'2019.9
2016-May-26 12:32N 37°28' E 010°42'6120.0
2016-May-26 09:28N 37°26' E 009°25'1921.1
2016-May-26 08:33N 37°21' E 009°01'2121.1
2016-May-26 07:33N 37°15' E 008°35'2020.1
2016-May-26 06:32N 37°15' E 008°10'2019.8
2016-May-26 05:32N 37°18' E 007°45'2419.6
2016-May-26 04:19N 37°20' E 007°15'3619.9
2016-May-26 02:31N 37°22' E 006°30'4020.1
2016-May-26 00:33N 37°21' E 005°41'2320.7
2016-May-25 23:28N 37°18' E 005°13'1920.6
2016-May-25 22:33N 37°15' E 004°49'2120.7
2016-May-25 21:33N 37°12' E 004°24'2020.2
2016-May-25 20:33N 37°09' E 003°59'2020.1
2016-May-25 19:33N 37°06' E 003°34'2120.9
2016-May-25 18:33N 37°01' E 003°08'2121.0
2016-May-25 17:33N 36°57' E 002°43'2120.8
2016-May-25 16:33N 36°53' E 002°17'2120.6
2016-May-25 15:33N 36°50' E 001°51'2121.1
2016-May-25 14:33N 36°46' E 001°26'2117.2
2016-May-25 13:21N 36°42' E 001°00'2220.8
2016-May-25 12:17N 36°39' E 000°33'1621.1
2016-May-25 11:33N 36°37' E 000°13'4411.0
2016-May-25 07:33N 36°33' W 000°41'21321.3
2016-May-24 21:32N 35°59' W 005°02'2222.0
2016-May-24 20:34N 35°56' W 005°29'155 3.1
2016-May-22 18:33N 36°26' W 008°38'1817.8
2016-May-22 17:33N 36°30' W 008°59'1817.4
2016-May-22 16:31N 36°36' W 009°20'4317.7
2016-May-22 14:07N 37°15' W 009°42'1217.8
2016-May-22 13:25N 37°27' W 009°46'1717.7
2016-May-22 12:26N 37°44' W 009°51'1617.8
2016-May-22 11:33N 37°59' W 009°56'2118.0
2016-May-22 10:22N 38°20' W 010°02'1618.1
2016-May-22 09:28N 38°36' W 010°07'1718.1
2016-May-22 08:31N 38°53' W 010°08'38518.8
2016-May-21 12:00N 45°12' W 008°36'33818.4 260 / 161007.7 1.1 3.015.013.314.7
2016-May-20 17:33N 49°43' W 003°37'1818.2
2016-May-20 16:33N 49°53' W 003°13'1918.8
2016-May-20 15:33N 50°01' W 002°47'2120.5
2016-May-20 14:33N 50°06' W 002°16'5422.0
2016-May-20 12:05N 50°20' W 000°54'1120.6
2016-May-20 11:33N 50°23' W 000°37'2019.7
2016-May-20 10:33N 50°28' W 000°07'1918.5
2016-May-20 09:33N 50°32' E 000°21'3817.9
2016-May-20 07:26N 50°52' E 001°13'1820.4
2016-May-20 06:34N 51°05' E 001°32'2120.8
2016-May-20 05:33N 51°21' E 001°54'1615.6
2016-May-20 04:34N 51°20' E 002°19'1616.2
2016-May-20 03:33N 51°23' E 002°44'1312.6
2016-May-20 02:33N 51°24' E 003°04'1414.2
2016-May-20 01:34N 51°25' E 003°27'10 9.8
2016-May-20 00:34N 51°24' E 003°43'9 9.1
2016-May-19 23:33N 51°24' E 003°57'7 7.3
2016-May-19 22:33N 51°23' E 004°09'6 6.4
2016-May-19 21:33N 51°18' E 004°16'1 0.5
2016-May-19 20:28N 51°18' E 004°16'0 0.0
2016-May-19 19:31N 51°18' E 004°16'0 0.0
2016-May-19 18:31N 51°18' E 004°16'0 0.0
2016-May-19 17:31N 51°18' E 004°16'0 0.0
2016-May-19 16:31N 51°18' E 004°16'0 0.0
2016-May-19 15:31N 51°18' E 004°16'0 0.0
2016-May-19 14:31N 51°18' E 004°16'0 0.0
2016-May-19 13:31N 51°18' E 004°16'0 0.0
2016-May-19 12:31N 51°18' E 004°16'0 0.0
2016-May-19 11:28N 51°18' E 004°16'0 0.0
2016-May-19 10:31N 51°18' E 004°16'0 0.0
2016-May-19 09:31N 51°18' E 004°16'0 0.0
2016-May-19 08:31N 51°18' E 004°16'0 0.0
2016-May-19 07:28N 51°18' E 004°16'0 0.0
2016-May-19 06:22N 51°18' E 004°16'0 0.0
2016-May-19 05:31N 51°18' E 004°16'0 0.0
2016-May-19 04:31N 51°18' E 004°16'0 0.0
2016-May-19 03:31N 51°18' E 004°16'0 0.0
2016-May-19 02:31N 51°18' E 004°16'0 0.0
2016-May-19 01:31N 51°18' E 004°16'0 0.0
2016-May-19 00:31N 51°18' E 004°16'0 0.0
2016-May-18 23:31N 51°18' E 004°16'0 0.0
2016-May-18 22:31N 51°18' E 004°16'0 0.0
2016-May-18 21:31N 51°18' E 004°16'0 0.0
2016-May-18 20:28N 51°18' E 004°16'0 0.0
2016-May-18 19:31N 51°18' E 004°16'0 0.0
2016-May-18 18:31N 51°18' E 004°16'0 0.0
2016-May-18 17:31N 51°18' E 004°16'0 0.0
2016-May-18 16:28N 51°18' E 004°16'0 0.0
2016-May-18 15:31N 51°18' E 004°16'0 0.0
2016-May-18 14:31N 51°18' E 004°16'0 0.0
2016-May-18 13:31N 51°18' E 004°16'0 0.0
2016-May-18 12:28N 51°18' E 004°16'0 0.0
2016-May-18 11:28N 51°18' E 004°16'0 0.0
2016-May-18 10:33N 51°18' E 004°16'5 4.5
2016-May-18 09:33N 51°22' E 004°13'10 9.8
2016-May-18 08:34N 51°26' E 003°59'1010.3
2016-May-18 07:34N 51°23' E 003°43'9 9.2
2016-May-18 06:33N 51°25' E 003°29'1515.1
2016-May-18 05:33N 51°24' E 003°05'1212.2
2016-May-18 04:33N 51°36' E 003°10'1313.1
2016-May-18 03:33N 51°49' E 003°17'3516.6
2016-May-18 01:27N 52°23' E 003°26'8716.2
2016-May-17 20:04N 53°33' E 004°53'917.8
2016-May-17 19:33N 53°36' E 005°07'1717.2
2016-May-17 18:34N 53°41' E 005°34'1716.8
2016-May-17 17:34N 53°46' E 006°01'1616.4
2016-May-17 16:33N 53°51' E 006°28'1616.4
2016-May-17 15:34N 53°55' E 006°55'1717.0
2016-May-17 14:34N 53°58' E 007°24'1514.7
2016-May-17 13:33N 53°53' E 007°47'1615.7
2016-May-17 12:34N 53°46' E 008°11'  
Track history (hours):
 
Tides and Currents Weather Stations Pressure Air Temp Water Temp Dewpoint Dewpoint Depression Visibility Wind Speed Wind Dir Waves Ship Positions

Evelyn Maersk

Last reported at 2016-May-27 12:00 UTC. Time now 2016-May-27 22:02 UTC.
Position N 34°54' E 020°00'.

Length 398 m; draft 15.6 m.

Type: Ship (hazmat cat A). MMSI: 220496000.

Wind from 320 at 13 knots

Waves 0.5 meters (2 feet)

Barometer 1016.1 mb
Air temperature 22.2 ° C
Visibility: greater than 10.8 NM
Dewpoint 19.3 ° C
Water temperature 20.9 ° C

Date/timePositionNaut miles runAvg speedWind from/ knotsBaromVisibWave heightAir tempDewpointWater temp
2016-May-27 12:00N 34°54' E 020°00'10719.6 320 / 131016.110.8 0.522.219.320.9
2016-May-27 06:32N 35°28' E 017°56'2020.2
2016-May-27 05:33N 35°34' E 017°33'2020.4
2016-May-27 04:33N 35°40' E 017°08'2020.6
2016-May-27 03:33N 35°46' E 016°45'2120.6
2016-May-27 02:33N 35°53' E 016°20'2120.5
2016-May-27 01:33N 35°59' E 015°56'2120.9
2016-May-27 00:33N 36°05' E 015°31'2121.0
2016-May-26 23:33N 36°11' E 015°07'2120.9
2016-May-26 22:33N 36°17' E 014°42'2120.6
2016-May-26 21:33N 36°23' E 014°18'2020.4
2016-May-26 20:33N 36°29' E 013°53'2120.6
2016-May-26 19:33N 36°36' E 013°29'2020.5
2016-May-26 18:33N 36°42' E 013°05'2120.6
2016-May-26 17:33N 36°51' E 012°41'2120.6
2016-May-26 16:33N 36°58' E 012°17'2120.4
2016-May-26 15:32N 37°06' E 011°53'2020.6
2016-May-26 14:33N 37°13' E 011°30'2120.6
2016-May-26 13:33N 37°22' E 011°06'2019.9
2016-May-26 12:32N 37°28' E 010°42'6120.0
2016-May-26 09:28N 37°26' E 009°25'1921.1
2016-May-26 08:33N 37°21' E 009°01'2121.1
2016-May-26 07:33N 37°15' E 008°35'2020.1
2016-May-26 06:32N 37°15' E 008°10'2019.8
2016-May-26 05:32N 37°18' E 007°45'2419.6
2016-May-26 04:19N 37°20' E 007°15'3619.9
2016-May-26 02:31N 37°22' E 006°30'4020.1
2016-May-26 00:33N 37°21' E 005°41'2320.7
2016-May-25 23:28N 37°18' E 005°13'1920.6
2016-May-25 22:33N 37°15' E 004°49'2120.7
2016-May-25 21:33N 37°12' E 004°24'2020.2
2016-May-25 20:33N 37°09' E 003°59'2020.1
2016-May-25 19:33N 37°06' E 003°34'2120.9
2016-May-25 18:33N 37°01' E 003°08'2121.0
2016-May-25 17:33N 36°57' E 002°43'2120.8
2016-May-25 16:33N 36°53' E 002°17'2120.6
2016-May-25 15:33N 36°50' E 001°51'2121.1
2016-May-25 14:33N 36°46' E 001°26'2117.2
2016-May-25 13:21N 36°42' E 001°00'2220.8
2016-May-25 12:17N 36°39' E 000°33'1621.1
2016-May-25 11:33N 36°37' E 000°13'4411.0
2016-May-25 07:33N 36°33' W 000°41'21321.3
2016-May-24 21:32N 35°59' W 005°02'2222.0
2016-May-24 20:34N 35°56' W 005°29'155 3.1
2016-May-22 18:33N 36°26' W 008°38'1817.8
2016-May-22 17:33N 36°30' W 008°59'1817.4
2016-May-22 16:31N 36°36' W 009°20'4317.7
2016-May-22 14:07N 37°15' W 009°42'1217.8
2016-May-22 13:25N 37°27' W 009°46'1717.7
2016-May-22 12:26N 37°44' W 009°51'1617.8
2016-May-22 11:33N 37°59' W 009°56'2118.0
2016-May-22 10:22N 38°20' W 010°02'1618.1
2016-May-22 09:28N 38°36' W 010°07'1718.1
2016-May-22 08:31N 38°53' W 010°08'38518.8
2016-May-21 12:00N 45°12' W 008°36'33818.4 260 / 161007.7 1.1 3.015.013.314.7
2016-May-20 17:33N 49°43' W 003°37'1818.2
2016-May-20 16:33N 49°53' W 003°13'1918.8
2016-May-20 15:33N 50°01' W 002°47'2120.5
2016-May-20 14:33N 50°06' W 002°16'5422.0
2016-May-20 12:05N 50°20' W 000°54'1120.6
2016-May-20 11:33N 50°23' W 000°37'2019.7
2016-May-20 10:33N 50°28' W 000°07'1918.5
2016-May-20 09:33N 50°32' E 000°21'3817.9
2016-May-20 07:26N 50°52' E 001°13'1820.4
2016-May-20 06:34N 51°05' E 001°32'2120.8
2016-May-20 05:33N 51°21' E 001°54'1615.6
2016-May-20 04:34N 51°20' E 002°19'1616.2
2016-May-20 03:33N 51°23' E 002°44'1312.6
2016-May-20 02:33N 51°24' E 003°04'1414.2
2016-May-20 01:34N 51°25' E 003°27'10 9.8
2016-May-20 00:34N 51°24' E 003°43'9 9.1
2016-May-19 23:33N 51°24' E 003°57'7 7.3
2016-May-19 22:33N 51°23' E 004°09'6 6.4
2016-May-19 21:33N 51°18' E 004°16'1 0.5
2016-May-19 20:28N 51°18' E 004°16'0 0.0
2016-May-19 19:31N 51°18' E 004°16'0 0.0
2016-May-19 18:31N 51°18' E 004°16'0 0.0
2016-May-19 17:31N 51°18' E 004°16'0 0.0
2016-May-19 16:31N 51°18' E 004°16'0 0.0
2016-May-19 15:31N 51°18' E 004°16'0 0.0
2016-May-19 14:31N 51°18' E 004°16'0 0.0
2016-May-19 13:31N 51°18' E 004°16'0 0.0
2016-May-19 12:31N 51°18' E 004°16'0 0.0
2016-May-19 11:28N 51°18' E 004°16'0 0.0
2016-May-19 10:31N 51°18' E 004°16'0 0.0
2016-May-19 09:31N 51°18' E 004°16'0 0.0
2016-May-19 08:31N 51°18' E 004°16'0 0.0
2016-May-19 07:28N 51°18' E 004°16'0 0.0
2016-May-19 06:22N 51°18' E 004°16'0 0.0
2016-May-19 05:31N 51°18' E 004°16'0 0.0
2016-May-19 04:31N 51°18' E 004°16'0 0.0
2016-May-19 03:31N 51°18' E 004°16'0 0.0
2016-May-19 02:31N 51°18' E 004°16'0 0.0
2016-May-19 01:31N 51°18' E 004°16'0 0.0
2016-May-19 00:31N 51°18' E 004°16'0 0.0
2016-May-18 23:31N 51°18' E 004°16'0 0.0
2016-May-18 22:31N 51°18' E 004°16'0 0.0
2016-May-18 21:31N 51°18' E 004°16'0 0.0
2016-May-18 20:28N 51°18' E 004°16'0 0.0
2016-May-18 19:31N 51°18' E 004°16'0 0.0
2016-May-18 18:31N 51°18' E 004°16'0 0.0
2016-May-18 17:31N 51°18' E 004°16'0 0.0
2016-May-18 16:28N 51°18' E 004°16'0 0.0
2016-May-18 15:31N 51°18' E 004°16'0 0.0
2016-May-18 14:31N 51°18' E 004°16'0 0.0
2016-May-18 13:31N 51°18' E 004°16'0 0.0
2016-May-18 12:28N 51°18' E 004°16'0 0.0
2016-May-18 11:28N 51°18' E 004°16'0 0.0
2016-May-18 10:33N 51°18' E 004°16'5 4.5
2016-May-18 09:33N 51°22' E 004°13'10 9.8
2016-May-18 08:34N 51°26' E 003°59'1010.3
2016-May-18 07:34N 51°23' E 003°43'9 9.2
2016-May-18 06:33N 51°25' E 003°29'1515.1
2016-May-18 05:33N 51°24' E 003°05'1212.2
2016-May-18 04:33N 51°36' E 003°10'1313.1
2016-May-18 03:33N 51°49' E 003°17'3516.6
2016-May-18 01:27N 52°23' E 003°26'8716.2
2016-May-17 20:04N 53°33' E 004°53'917.8
2016-May-17 19:33N 53°36' E 005°07'1717.2
2016-May-17 18:34N 53°41' E 005°34'1716.8
2016-May-17 17:34N 53°46' E 006°01'1616.4
2016-May-17 16:33N 53°51' E 006°28'1616.4
2016-May-17 15:34N 53°55' E 006°55'1717.0
2016-May-17 14:34N 53°58' E 007°24'1514.7
2016-May-17 13:33N 53°53' E 007°47'1615.7
2016-May-17 12:34N 53°46' E 008°11'  

Dump ship's entire track history